Time;durP1;ratioP1;P1;durP2;ratioP2;P2;SDS_P1;SDS_P2;PMS_P1;PMS_P2;Temp;Humidity;BMP_temperature;BMP_pressure;BME280_temperature;BME280_humidity;BME280_pressure;Samples;Min_cycle;Max_cycle;Signal;HPM_P1;HPM_P2
2022/04/14 00:02:16;;;;;;;1.03;1.00;;;11.60;99.90;;;;;;4848155;29;20589;-59
2022/04/14 00:04:49;;;;;;;1.10;1.00;;;11.60;99.90;;;;;;4844341;29;20532;-59
2022/04/14 00:07:19;;;;;;;1.60;1.10;;;11.60;99.90;;;;;;4843015;29;20812;-60
2022/04/14 00:09:50;;;;;;;3.13;2.23;;;11.50;99.90;;;;;;4850463;29;20985;-60
2022/04/14 00:12:21;;;;;;;2.33;1.60;;;11.50;99.90;;;;;;4843594;29;20583;-59
2022/04/14 00:14:52;;;;;;;2.73;1.13;;;11.60;99.90;;;;;;4836479;29;20471;-59
2022/04/14 00:17:22;;;;;;;1.10;1.00;;;11.60;99.90;;;;;;4842572;29;20471;-59
2022/04/14 00:19:55;;;;;;;3.40;1.23;;;11.90;99.80;;;;;;4836515;29;20463;-59
2022/04/14 00:22:26;;;;;;;0.80;0.73;;;12.00;98.30;;;;;;4832294;29;20467;-60
2022/04/14 00:25:01;;;;;;;1.00;0.90;;;11.80;98.70;;;;;;4836255;29;20585;-59
2022/04/14 00:27:38;;;;;;;1.73;1.63;;;11.70;99.90;;;;;;4846342;29;20509;-60
2022/04/14 00:30:10;;;;;;;1.13;0.60;;;11.70;99.90;;;;;;4848466;29;20863;-60
2022/04/14 00:32:47;;;;;;;1.33;1.10;;;11.70;99.90;;;;;;4844196;29;20462;-60
2022/04/14 00:35:19;;;;;;;1.67;1.10;;;11.90;99.90;;;;;;4838367;29;20468;-60
2022/04/14 00:37:50;;;;;;;1.27;0.90;;;12.00;99.90;;;;;;4846034;29;20836;-60
2022/04/14 00:40:21;;;;;;;1.07;0.90;;;11.80;99.90;;;;;;4851628;29;20476;-60
2022/04/14 00:42:55;;;;;;;1.60;1.10;;;11.60;99.90;;;;;;4845262;29;20478;-59
2022/04/14 00:45:26;;;;;;;1.27;1.00;;;11.20;99.90;;;;;;4853420;29;20465;-59
2022/04/14 00:48:13;;;;;;;2.70;1.10;;;10.90;99.90;;;;;;4853728;29;20526;-59
2022/04/14 00:50:46;;;;;;;2.43;1.37;;;10.70;99.90;;;;;;4844567;29;20467;-60
2022/04/14 00:53:21;;;;;;;0.97;0.97;;;10.50;99.90;;;;;;4849397;29;20478;-59
2022/04/14 00:55:52;;;;;;;2.43;1.47;;;10.40;99.90;;;;;;4848868;29;20815;-64
2022/04/14 00:58:23;;;;;;;2.03;1.43;;;10.40;99.90;;;;;;4848475;29;20456;-63
2022/04/14 01:00:54;;;;;;;2.33;1.10;;;10.20;99.90;;;;;;4847969;29;20665;-63
2022/04/14 01:03:25;;;;;;;2.77;1.33;;;10.10;99.90;;;;;;4843200;29;20465;-62
2022/04/14 01:05:58;;;;;;;2.10;1.50;;;10.20;99.90;;;;;;4842573;29;20527;-64
2022/04/14 01:08:33;;;;;;;1.33;1.23;;;10.00;99.90;;;;;;4852099;29;20503;-64
2022/04/14 01:11:04;;;;;;;2.53;1.40;;;10.00;99.90;;;;;;4841716;29;20544;-62
2022/04/14 01:13:35;;;;;;;1.75;1.35;;;10.00;99.90;;;;;;4841344;29;20922;-63
2022/04/14 01:16:06;;;;;;;1.83;1.37;;;10.00;99.90;;;;;;4847759;29;20216;-63
2022/04/14 01:18:37;;;;;;;1.60;1.13;;;10.00;99.90;;;;;;4849974;29;20582;-62
2022/04/14 01:21:10;;;;;;;1.23;1.20;;;9.90;99.90;;;;;;4842252;29;20530;-59
2022/04/14 01:23:54;;;;;;;1.77;1.10;;;9.90;99.90;;;;;;4850779;29;20537;-63
2022/04/14 01:26:25;;;;;;;1.10;0.90;;;9.80;99.90;;;;;;4847825;29;20494;-62
2022/04/14 01:28:56;;;;;;;1.77;1.30;;;9.60;99.90;;;;;;4847307;29;20470;-63
2022/04/14 01:31:27;;;;;;;3.00;1.50;;;9.40;99.90;;;;;;4852522;29;20454;-62
2022/04/14 01:33:59;;;;;;;3.55;1.63;;;9.30;99.90;;;;;;4844536;29;20824;-60
2022/04/14 01:36:29;;;;;;;1.90;1.30;;;9.20;99.90;;;;;;4844394;29;20214;-59
2022/04/14 01:39:02;;;;;;;1.80;1.35;;;9.10;99.90;;;;;;4849202;29;20213;-59
2022/04/14 01:41:32;;;;;;;1.67;1.58;;;9.10;99.90;;;;;;4846147;29;20216;-58
2022/04/14 01:44:03;;;;;;;2.40;1.40;;;9.10;99.90;;;;;;4845140;29;20233;-56
2022/04/14 01:46:34;;;;;;;3.35;1.88;;;9.00;99.90;;;;;;4850211;29;20515;-59
2022/04/14 01:49:05;;;;;;;1.87;1.60;;;8.90;99.90;;;;;;4850395;29;20225;-59
2022/04/14 01:51:36;;;;;;;1.85;1.27;;;8.90;99.90;;;;;;4848315;29;21022;-56
2022/04/14 01:54:09;;;;;;;1.33;1.23;;;8.90;99.90;;;;;;4845517;29;20212;-58
2022/04/14 01:56:39;;;;;;;2.67;1.58;;;8.90;99.90;;;;;;4844635;29;20209;-59
2022/04/14 01:59:10;;;;;;;2.83;1.73;;;8.90;99.90;;;;;;4848653;29;20206;-59
2022/04/14 02:01:41;;;;;;;2.42;1.60;;;8.80;99.90;;;;;;4845639;29;20201;-58
2022/04/14 02:04:21;;;;;;;1.77;1.40;;;8.60;99.90;;;;;;4847195;29;20217;-58
2022/04/14 02:06:51;;;;;;;1.65;1.55;;;8.60;99.90;;;;;;4846409;29;20244;-59
2022/04/14 02:09:24;;;;;;;1.90;1.80;;;8.70;99.90;;;;;;4837464;29;20233;-59
2022/04/14 02:11:54;;;;;;;1.85;1.70;;;8.90;99.90;;;;;;4844532;29;20225;-59
2022/04/14 02:14:25;;;;;;;3.85;1.83;;;8.90;99.90;;;;;;4851251;29;20205;-59
2022/04/14 02:16:56;;;;;;;2.40;1.55;;;8.80;99.90;;;;;;4849080;29;20209;-60
2022/04/14 02:19:27;;;;;;;3.15;2.15;;;9.00;99.90;;;;;;4849222;29;20209;-59
2022/04/14 02:21:58;;;;;;;1.65;1.55;;;9.00;99.90;;;;;;4838778;29;20309;-59
2022/04/14 02:24:31;;;;;;;1.77;1.65;;;9.00;99.90;;;;;;4834241;29;20218;-59
2022/04/14 02:27:02;;;;;;;1.40;1.30;;;8.90;99.90;;;;;;4847465;29;20302;-55
2022/04/14 02:29:32;;;;;;;5.55;2.20;;;9.00;99.90;;;;;;4834563;29;20249;-57
2022/04/14 02:32:03;;;;;;;2.53;1.90;;;8.90;99.90;;;;;;4837220;29;20213;-59
2022/04/14 02:34:37;;;;;;;2.10;1.40;;;8.70;99.90;;;;;;4840234;29;20589;-58
2022/04/14 02:37:08;;;;;;;2.97;2.50;;;8.70;99.90;;;;;;4844329;29;20240;-59
2022/04/14 02:39:43;;;;;;;2.17;1.95;;;8.70;99.90;;;;;;4841452;29;20212;-58
2022/04/14 02:42:14;;;;;;;2.45;2.05;;;8.50;99.90;;;;;;4847691;29;20208;-57
2022/04/14 02:44:45;;;;;;;2.00;1.80;;;8.50;99.90;;;;;;4834604;29;20202;-57
2022/04/14 02:47:16;;;;;;;2.25;1.55;;;8.50;99.90;;;;;;4837118;29;20226;-58
2022/04/14 02:49:47;;;;;;;1.65;1.55;;;8.60;99.90;;;;;;4843840;29;20210;-58
2022/04/14 02:52:18;;;;;;;1.75;1.63;;;8.50;99.90;;;;;;4839096;29;20311;-58
2022/04/14 02:54:54;;;;;;;2.30;1.60;;;8.40;99.90;;;;;;4847154;29;20213;-58
2022/04/14 02:57:27;;;;;;;5.43;2.30;;;8.40;99.90;;;;;;4841256;29;20217;-59
2022/04/14 03:00:19;;;;;;;1.60;1.50;;;8.30;99.90;;;;;;4848309;29;20209;-59
2022/04/14 03:02:50;;;;;;;2.70;1.90;;;8.40;99.90;;;;;;4844227;29;20197;-58
2022/04/14 03:05:20;;;;;;;2.25;1.55;;;8.30;99.90;;;;;;4849791;29;20226;-58
2022/04/14 03:07:51;;;;;;;2.30;2.10;;;8.20;99.90;;;;;;4836539;29;20291;-60
2022/04/14 03:10:24;;;;;;;3.08;2.35;;;8.20;99.90;;;;;;4843592;29;20205;-60
2022/04/14 03:12:55;;;;;;;2.35;1.95;;;8.20;99.90;;;;;;4837754;29;20232;-60
2022/04/14 03:15:26;;;;;;;2.53;1.60;;;8.20;99.90;;;;;;4840331;29;20240;-60
2022/04/14 03:17:57;;;;;;;4.18;1.95;;;8.10;99.90;;;;;;4839643;29;20205;-60
2022/04/14 03:20:28;;;;;;;2.28;1.33;;;8.00;99.90;;;;;;4844614;29;20217;-60
2022/04/14 03:23:00;;;;;;;3.05;1.60;;;7.90;99.90;;;;;;4842076;29;20222;-60
2022/04/14 03:25:35;;;;;;;1.67;1.55;;;7.90;99.90;;;;;;4844518;29;20221;-60
2022/04/14 03:28:06;;;;;;;1.83;1.70;;;7.90;99.90;;;;;;4849337;29;20229;-60
2022/04/14 03:30:37;;;;;;;1.45;1.35;;;7.80;99.90;;;;;;4846563;29;20525;-60
2022/04/14 03:33:07;;;;;;;1.75;1.65;;;7.80;99.90;;;;;;4833579;29;20555;-60
2022/04/14 03:35:38;;;;;;;2.60;1.85;;;7.60;99.90;;;;;;4835439;29;20210;-60
2022/04/14 03:38:09;;;;;;;3.00;2.28;;;7.60;99.90;;;;;;4848264;29;20219;-60
2022/04/14 03:41:05;;;;;;;2.20;2.00;;;7.60;99.90;;;;;;4836759;29;20201;-60
2022/04/14 03:43:37;;;;;;;2.72;1.80;;;7.40;99.90;;;;;;4844709;29;20209;-60
2022/04/14 03:46:23;;;;;;;5.68;2.70;;;7.40;99.90;;;;;;4846453;29;20718;-60
2022/04/14 03:48:58;;;;;;;8.63;4.30;;;7.50;99.90;;;;;;4850245;29;20289;-60
2022/04/14 03:51:29;;;;;;;2.72;2.53;;;7.50;99.90;;;;;;4837183;29;20696;-60
2022/04/14 03:53:59;;;;;;;3.17;2.58;;;7.50;99.90;;;;;;4849315;29;20217;-60
2022/04/14 03:56:35;;;;;;;2.85;2.65;;;7.50;99.90;;;;;;4849149;29;20281;-60
2022/04/14 03:59:06;;;;;;;3.85;2.97;;;7.40;99.90;;;;;;4844249;29;20220;-60
2022/04/14 04:01:40;;;;;;;3.10;2.90;;;7.40;99.90;;;;;;4846036;29;20209;-60
2022/04/14 04:04:11;;;;;;;3.67;3.05;;;7.30;99.90;;;;;;4849760;29;20201;-59
2022/04/14 04:06:42;;;;;;;4.63;2.80;;;7.30;99.90;;;;;;4849228;29;20210;-59
2022/04/14 04:09:13;;;;;;;2.50;2.30;;;7.30;99.90;;;;;;4832866;29;20266;-60
2022/04/14 04:11:48;;;;;;;2.70;2.50;;;7.20;99.90;;;;;;4837148;29;20526;-60
2022/04/14 04:14:21;;;;;;;2.83;2.40;;;7.20;99.90;;;;;;4837691;29;20217;-60
2022/04/14 04:16:52;;;;;;;2.95;2.65;;;7.10;99.90;;;;;;4843623;29;20202;-59
2022/04/14 04:19:23;;;;;;;2.60;2.25;;;7.00;99.90;;;;;;4840575;29;20202;-59
2022/04/14 04:22:01;;;;;;;3.40;2.78;;;7.00;99.90;;;;;;4840586;29;20197;-60
2022/04/14 04:24:31;;;;;;;2.78;2.47;;;6.90;99.90;;;;;;4842911;29;20214;-60
2022/04/14 04:27:04;;;;;;;3.05;2.85;;;6.80;99.90;;;;;;4836155;29;20605;-59
2022/04/14 04:29:36;;;;;;;2.53;2.33;;;6.70;99.90;;;;;;4849229;29;20331;-60
2022/04/14 04:32:08;;;;;;;3.63;2.65;;;6.60;99.90;;;;;;4841143;29;20217;-60
2022/04/14 04:34:39;;;;;;;3.00;2.33;;;6.60;99.90;;;;;;4847117;29;20205;-59
2022/04/14 04:37:10;;;;;;;5.75;3.10;;;6.60;99.90;;;;;;4848395;29;20201;-60
2022/04/14 04:39:41;;;;;;;3.80;2.80;;;6.60;99.90;;;;;;4839400;29;20213;-59
2022/04/14 04:42:21;;;;;;;3.13;2.70;;;6.60;99.90;;;;;;4849037;29;20234;-58
2022/04/14 04:44:53;;;;;;;3.63;2.90;;;6.60;99.90;;;;;;4842800;29;20225;-59
2022/04/14 04:47:24;;;;;;;3.05;2.78;;;6.50;99.90;;;;;;4846434;29;20530;-59
2022/04/14 04:50:01;;;;;;;2.58;2.28;;;6.50;99.90;;;;;;4841687;29;20240;-60
2022/04/14 04:52:41;;;;;;;3.05;2.85;;;6.40;99.90;;;;;;4844334;29;20198;-60
2022/04/14 04:55:13;;;;;;;2.35;2.25;;;6.30;99.90;;;;;;4847021;29;20194;-59
2022/04/14 04:57:48;;;;;;;2.63;2.35;;;6.20;99.90;;;;;;4848479;29;20216;-59
2022/04/14 05:00:19;;;;;;;2.80;2.15;;;6.20;99.90;;;;;;4848137;29;20217;-60
2022/04/14 05:02:57;;;;;;;2.30;2.10;;;6.20;99.90;;;;;;4848286;29;20228;-60
2022/04/14 05:05:29;;;;;;;2.33;2.13;;;6.20;99.90;;;;;;4850044;29;20213;-59
2022/04/14 05:08:08;;;;;;;3.77;2.23;;;6.00;99.90;;;;;;4849454;29;20246;-59
2022/04/14 05:10:38;;;;;;;4.28;2.35;;;5.90;99.90;;;;;;4850182;29;20489;-60
2022/04/14 05:13:24;;;;;;;2.67;1.95;;;5.80;99.90;;;;;;4848456;29;20217;-60
2022/04/14 05:15:55;;;;;;;2.80;1.92;;;5.70;99.90;;;;;;4845294;29;20209;-60
2022/04/14 05:18:37;;;;;;;2.15;2.00;;;5.70;99.90;;;;;;4852258;29;20217;-59
2022/04/14 05:21:08;;;;;;;2.38;2.17;;;5.60;99.90;;;;;;4852507;29;20209;-59
2022/04/14 05:23:38;;;;;;;3.65;2.00;;;5.50;99.90;;;;;;4853417;29;20213;-59
2022/04/14 05:26:09;;;;;;;3.35;2.03;;;5.50;99.90;;;;;;4853434;29;20205;-59
2022/04/14 05:28:42;;;;;;;2.30;2.10;;;5.40;99.90;;;;;;4852489;29;20678;-59
2022/04/14 05:31:12;;;;;;;2.75;1.75;;;5.40;99.90;;;;;;4845348;29;20210;-60
2022/04/14 05:33:43;;;;;;;2.38;2.17;;;5.40;99.90;;;;;;4834859;29;20225;-59
2022/04/14 05:36:14;;;;;;;2.75;1.98;;;5.40;99.90;;;;;;4835141;29;20206;-59
2022/04/14 05:38:45;;;;;;;2.17;2.00;;;5.30;99.90;;;;;;4847219;29;20210;-60
2022/04/14 05:41:16;;;;;;;2.08;1.98;;;5.30;99.90;;;;;;4840258;29;20239;-59
2022/04/14 05:43:48;;;;;;;2.47;2.10;;;5.40;99.90;;;;;;4842560;29;20221;-59
2022/04/14 05:46:19;;;;;;;2.45;1.92;;;5.50;99.90;;;;;;4851314;29;20214;-59
2022/04/14 05:48:51;;;;;;;1.75;1.65;;;5.40;99.90;;;;;;4837886;29;20232;-59
2022/04/14 05:51:22;;;;;;;1.75;1.65;;;5.40;99.90;;;;;;4852176;29;20623;-59
2022/04/14 05:53:53;;;;;;;2.17;2.08;;;5.40;99.90;;;;;;4852845;29;20194;-60
2022/04/14 05:56:24;;;;;;;3.20;2.38;;;5.40;99.90;;;;;;4852576;29;20213;-59
2022/04/14 05:58:57;;;;;;;2.65;2.25;;;5.50;99.90;;;;;;4846677;29;20212;-59
2022/04/14 06:01:28;;;;;;;2.10;2.00;;;5.40;99.90;;;;;;4836159;29;20582;-59
2022/04/14 06:03:58;;;;;;;2.58;2.45;;;5.50;99.90;;;;;;4850372;29;20309;-60
2022/04/14 06:06:29;;;;;;;3.00;2.80;;;5.50;99.90;;;;;;4834463;29;20298;-60
2022/04/14 06:09:00;;;;;;;2.40;2.30;;;5.50;99.90;;;;;;4841540;29;20248;-59
2022/04/14 06:11:31;;;;;;;2.25;2.05;;;5.50;99.90;;;;;;4852018;29;20268;-59
2022/04/14 06:14:03;;;;;;;2.47;2.28;;;5.50;99.90;;;;;;4851192;29;20685;-59
2022/04/14 06:16:34;;;;;;;2.15;1.95;;;5.40;99.90;;;;;;4851201;29;20218;-60
2022/04/14 06:19:05;;;;;;;2.88;2.60;;;5.40;99.90;;;;;;4840275;29;20213;-59
2022/04/14 06:21:36;;;;;;;2.40;2.20;;;5.40;99.90;;;;;;4847573;29;20221;-59
2022/04/14 06:24:07;;;;;;;3.45;3.15;;;5.40;99.90;;;;;;4835324;29;20205;-60
2022/04/14 06:26:38;;;;;;;4.78;4.38;;;5.40;99.90;;;;;;4834845;29;20658;-59
2022/04/14 06:29:11;;;;;;;8.60;7.40;;;5.50;99.90;;;;;;4847608;29;20348;-59
2022/04/14 06:31:42;;;;;;;9.90;8.80;;;5.50;99.90;;;;;;4851824;29;20220;-59
2022/04/14 06:34:12;;;;;;;9.93;7.20;;;5.40;99.90;;;;;;4851302;29;20589;-58
2022/04/14 06:36:43;;;;;;;11.63;10.07;;;5.50;99.90;;;;;;4851563;29;20213;-59
2022/04/14 06:39:14;;;;;;;12.77;10.77;;;5.60;99.90;;;;;;4851599;29;20209;-59
2022/04/14 06:41:45;;;;;;;11.45;10.30;;;5.50;99.90;;;;;;4850950;29;20571;-59
2022/04/14 06:44:18;;;;;;;11.25;9.43;;;5.50;99.90;;;;;;4848073;29;20641;-59
2022/04/14 06:46:49;;;;;;;11.52;9.85;;;5.40;99.90;;;;;;4839165;29;20213;-58
2022/04/14 06:49:20;;;;;;;12.45;10.75;;;5.50;99.90;;;;;;4838805;29;20249;-59
2022/04/14 06:51:50;;;;;;;12.00;10.10;;;5.50;99.90;;;;;;4847191;29;20194;-60
2022/04/14 06:54:25;;;;;;;12.68;11.20;;;5.50;99.90;;;;;;4835514;29;20648;-60
2022/04/14 06:56:56;;;;;;;8.52;7.72;;;5.40;99.90;;;;;;4833728;29;20210;-60
2022/04/14 06:59:31;;;;;;;6.82;6.22;;;5.30;99.90;;;;;;4842092;29;20210;-60
2022/04/14 07:02:02;;;;;;;7.43;6.72;;;5.30;99.90;;;;;;4850054;29;20241;-60
2022/04/14 07:04:33;;;;;;;7.95;7.15;;;5.30;99.90;;;;;;4839621;29;20221;-60
2022/04/14 07:07:04;;;;;;;9.43;7.43;;;5.30;99.90;;;;;;4842647;29;20209;-60
2022/04/14 07:09:36;;;;;;;7.45;6.75;;;5.20;99.90;;;;;;4843899;29;20264;-60
2022/04/14 07:12:07;;;;;;;7.32;6.18;;;5.20;99.90;;;;;;4839659;29;20224;-60
2022/04/14 07:14:40;;;;;;;7.13;6.30;;;5.20;99.90;;;;;;4839260;29;20240;-59
2022/04/14 07:17:11;;;;;;;6.38;4.72;;;5.20;99.90;;;;;;4841412;29;20212;-60
2022/04/14 07:19:47;;;;;;;6.65;5.07;;;5.10;99.90;;;;;;4837891;29;20244;-60
2022/04/14 07:22:19;;;;;;;4.95;4.55;;;4.90;99.90;;;;;;4849721;29;20200;-60
2022/04/14 07:24:50;;;;;;;5.40;4.90;;;4.70;99.90;;;;;;4846612;29;20209;-60
2022/04/14 07:27:22;;;;;;;5.70;5.05;;;4.70;99.90;;;;;;4844357;29;20352;-60
2022/04/14 07:29:54;;;;;;;4.18;3.85;;;4.70;99.90;;;;;;4837382;29;20317;-60
2022/04/14 07:32:25;;;;;;;4.35;3.95;;;4.70;99.90;;;;;;4847850;29;20248;-60
2022/04/14 07:34:56;;;;;;;5.13;4.72;;;4.70;99.90;;;;;;4834422;29;20206;-58
2022/04/14 07:37:27;;;;;;;4.10;3.70;;;4.60;99.90;;;;;;4846630;29;20260;-61
2022/04/14 07:39:57;;;;;;;5.70;4.43;;;4.50;99.90;;;;;;4841344;29;20205;-60
2022/04/14 07:42:33;;;;;;;4.90;4.32;;;4.50;99.90;;;;;;4844349;29;20210;-60
2022/04/14 07:45:06;;;;;;;4.97;4.47;;;4.50;99.90;;;;;;4835732;29;20219;-56
2022/04/14 07:47:41;;;;;;;5.25;4.72;;;4.40;99.90;;;;;;4850153;29;20228;-58
2022/04/14 07:50:12;;;;;;;4.63;4.22;;;4.30;99.90;;;;;;4849857;29;20244;-59
2022/04/14 07:52:48;;;;;;;4.70;4.05;;;4.20;99.90;;;;;;4846165;29;20520;-59
2022/04/14 07:55:23;;;;;;;4.55;4.15;;;4.10;99.90;;;;;;4837896;29;20306;-59
2022/04/14 07:57:57;;;;;;;5.47;4.97;;;4.00;99.90;;;;;;4836000;29;20568;-59
2022/04/14 08:00:30;;;;;;;5.25;4.75;;;3.90;99.90;;;;;;4840056;29;20550;-59
2022/04/14 08:03:02;;;;;;;6.15;4.82;;;3.90;99.90;;;;;;4848970;29;20217;-59
2022/04/14 08:05:35;;;;;;;8.70;5.10;;;3.90;99.90;;;;;;4840180;29;20604;-59
2022/04/14 08:08:07;;;;;;;5.57;5.07;;;3.90;99.90;;;;;;4845212;29;20233;-59
2022/04/14 08:10:37;;;;;;;5.43;4.93;;;3.80;99.90;;;;;;4845964;29;20230;-59
2022/04/14 08:13:08;;;;;;;6.18;5.22;;;3.70;99.90;;;;;;4841675;29;20213;-60
2022/04/14 08:15:41;;;;;;;7.82;5.85;;;3.70;99.90;;;;;;4847943;29;20236;-59
2022/04/14 08:18:12;;;;;;;6.00;5.35;;;3.60;99.90;;;;;;4842185;29;20212;-59
2022/04/14 08:20:43;;;;;;;5.95;5.35;;;3.60;99.90;;;;;;4847946;29;20213;-59
2022/04/14 08:23:18;;;;;;;5.80;5.18;;;3.60;99.90;;;;;;4850071;29;20218;-59
2022/04/14 08:25:48;;;;;;;6.45;5.50;;;3.50;99.90;;;;;;4843282;29;20196;-59
2022/04/14 08:28:41;;;;;;;6.95;5.93;;;3.50;99.90;;;;;;4839248;29;20205;-58
2022/04/14 08:31:14;;;;;;;7.00;6.03;;;3.40;99.90;;;;;;4850318;29;20233;-59
2022/04/14 08:33:45;;;;;;;6.13;5.53;;;3.40;99.90;;;;;;4840619;29;20362;-59
2022/04/14 08:36:17;;;;;;;6.65;5.90;;;3.30;99.90;;;;;;4846873;29;20701;-59
2022/04/14 08:38:50;;;;;;;8.25;5.50;;;3.30;99.90;;;;;;4840131;29;20650;-59
2022/04/14 08:41:25;;;;;;;6.95;5.95;;;3.20;99.90;;;;;;4847174;29;20198;-59
2022/04/14 08:44:02;;;;;;;9.38;6.05;;;3.20;99.90;;;;;;4832886;29;20206;-59
2022/04/14 08:46:36;;;;;;;6.82;6.20;;;3.30;99.90;;;;;;4844019;29;20210;-60
2022/04/14 08:49:08;;;;;;;6.57;5.40;;;3.20;99.90;;;;;;4834404;29;20205;-59
2022/04/14 08:51:40;;;;;;;7.20;6.35;;;3.20;99.90;;;;;;4848895;29;20244;-59
2022/04/14 08:54:13;;;;;;;10.80;7.30;;;3.10;99.90;;;;;;4850264;29;20213;-59
2022/04/14 08:56:46;;;;;;;8.35;6.35;;;3.10;99.90;;;;;;4843544;29;20594;-59
2022/04/14 08:59:20;;;;;;;8.20;7.20;;;3.20;99.90;;;;;;4843946;29;20577;-60
2022/04/14 09:01:53;;;;;;;9.25;7.65;;;3.20;99.90;;;;;;4850488;29;20231;-59
2022/04/14 09:04:23;;;;;;;9.70;8.43;;;3.30;99.90;;;;;;4851649;29;20233;-59
2022/04/14 09:06:54;;;;;;;10.82;8.98;;;3.20;99.90;;;;;;4847341;29;20217;-59
2022/04/14 09:09:25;;;;;;;10.23;9.00;;;3.20;99.90;;;;;;4849342;29;20243;-59
2022/04/14 09:11:57;;;;;;;12.48;10.05;;;3.20;99.90;;;;;;4838243;29;20646;-59
2022/04/14 09:14:28;;;;;;;10.70;9.60;;;3.20;99.90;;;;;;4851727;29;20190;-60
2022/04/14 09:17:00;;;;;;;12.50;10.95;;;3.20;99.90;;;;;;4845001;29;20206;-59
2022/04/14 09:19:32;;;;;;;10.63;9.23;;;3.20;99.90;;;;;;4836315;29;20224;-59
2022/04/14 09:22:04;;;;;;;10.45;9.45;;;3.10;99.90;;;;;;4850298;29;20663;-59
2022/04/14 09:24:47;;;;;;;10.02;8.60;;;3.10;99.90;;;;;;4835591;29;20206;-60
2022/04/14 09:27:28;;;;;;;8.90;8.02;;;3.10;99.90;;;;;;4838575;29;20654;-60
2022/04/14 09:30:03;;;;;;;9.10;7.85;;;3.10;99.90;;;;;;4853022;29;20235;-59
2022/04/14 09:32:36;;;;;;;10.82;9.60;;;3.10;99.90;;;;;;4838819;29;20220;-60
2022/04/14 09:35:16;;;;;;;9.40;8.30;;;3.10;99.90;;;;;;4847336;29;20216;-59
2022/04/14 09:38:00;;;;;;;10.85;9.50;;;3.00;99.90;;;;;;4847936;29;20311;-60
2022/04/14 09:40:33;;;;;;;12.82;9.45;;;3.00;99.90;;;;;;4844989;29;20209;-59
2022/04/14 09:43:04;;;;;;;9.85;8.85;;;2.90;99.90;;;;;;4851727;29;20217;-60
2022/04/14 09:45:35;;;;;;;11.18;9.90;;;2.80;99.90;;;;;;4838985;29;20228;-60
2022/04/14 09:48:10;;;;;;;10.68;8.35;;;2.70;99.90;;;;;;4845841;29;20234;-60
2022/04/14 09:50:48;;;;;;;10.88;9.75;;;2.70;99.90;;;;;;4839522;29;20219;-58
2022/04/14 09:53:20;;;;;;;12.15;8.27;;;2.70;99.90;;;;;;4845850;29;20217;-60
2022/04/14 09:55:59;;;;;;;11.77;9.65;;;2.60;99.90;;;;;;4839965;29;20301;-60
2022/04/14 09:58:33;;;;;;;12.85;9.27;;;2.60;99.90;;;;;;4843599;29;20544;-59
2022/04/14 10:01:03;;;;;;;12.43;9.18;;;2.60;99.90;;;;;;4841176;29;20215;-58
2022/04/14 10:03:37;;;;;;;11.70;9.70;;;2.60;99.90;;;;;;4837087;29;20194;-59
2022/04/14 10:06:08;;;;;;;10.02;9.00;;;2.50;99.90;;;;;;4845185;29;20226;-60
2022/04/14 10:08:51;;;;;;;11.05;9.68;;;2.40;99.90;;;;;;4834901;29;20254;-59
2022/04/14 10:11:27;;;;;;;12.48;9.60;;;2.40;99.90;;;;;;4834722;29;20257;-59
2022/04/14 10:14:11;;;;;;;11.65;10.25;;;2.40;99.90;;;;;;4837131;29;20225;-58
2022/04/14 10:16:42;;;;;;;10.25;9.25;;;2.50;99.90;;;;;;4844012;29;20209;-58
2022/04/14 10:19:16;;;;;;;13.40;10.00;;;2.40;99.90;;;;;;4841910;29;20232;-59
2022/04/14 10:21:48;;;;;;;11.52;10.32;;;2.30;99.90;;;;;;4835811;29;20209;-59
2022/04/14 10:24:19;;;;;;;12.88;10.05;;;2.30;99.90;;;;;;4849079;29;20189;-60
2022/04/14 10:26:51;;;;;;;13.73;10.30;;;2.20;99.90;;;;;;4848321;29;20214;-59
2022/04/14 10:29:25;;;;;;;13.40;10.00;;;2.20;99.90;;;;;;4850812;29;20217;-59
2022/04/14 10:31:57;;;;;;;11.35;9.60;;;2.20;99.90;;;;;;4840929;29;20233;-59
2022/04/14 10:34:31;;;;;;;14.27;11.90;;;2.30;99.90;;;;;;4838969;29;20246;-59
2022/04/14 10:37:03;;;;;;;11.18;10.02;;;2.20;99.90;;;;;;4850067;29;20212;-59
2022/04/14 10:39:39;;;;;;;12.40;9.90;;;2.30;99.90;;;;;;4852734;29;20201;-60
2022/04/14 10:42:12;;;;;;;13.30;11.00;;;2.30;99.90;;;;;;4850938;29;20287;-59
2022/04/14 10:44:48;;;;;;;11.75;9.45;;;2.30;99.90;;;;;;4845645;29;20221;-59
2022/04/14 10:47:53;;;;;;;11.40;9.27;;;2.40;99.90;;;;;;4845073;29;20545;-58
2022/04/14 10:50:27;;;;;;;13.50;10.95;;;2.40;99.90;;;;;;4834704;29;20205;-58
2022/04/14 10:53:23;;;;;;;11.35;9.65;;;2.50;99.90;;;;;;4843279;29;20237;-59
2022/04/14 10:55:54;;;;;;;32.38;11.05;;;2.60;99.90;;;;;;4833766;29;20232;-59
2022/04/14 10:58:54;;;;;;;17.52;10.20;;;2.70;99.90;;;;;;4843347;29;20205;-58
2022/04/14 11:02:02;;;;;;;16.00;9.93;;;2.80;99.90;;;;;;4836953;29;20210;-58
2022/04/14 11:04:38;;;;;;;17.08;8.45;;;2.90;99.90;;;;;;4839122;29;20228;-59
2022/04/14 11:07:14;;;;;;;16.83;9.50;;;3.00;99.90;;;;;;4836482;29;20206;-60
2022/04/14 11:09:53;;;;;;;12.75;9.57;;;3.10;99.90;;;;;;4846835;29;20205;-58
2022/04/14 11:12:25;;;;;;;13.32;8.82;;;3.20;99.90;;;;;;4839776;29;20241;-59
2022/04/14 11:14:58;;;;;;;15.70;10.18;;;3.20;99.90;;;;;;4836704;29;20980;-59
2022/04/14 11:17:54;;;;;;;12.63;9.32;;;3.30;99.90;;;;;;4834142;29;20213;-58
2022/04/14 11:20:54;;;;;;;12.15;8.80;;;3.40;99.90;;;;;;4844653;29;20265;-58
2022/04/14 11:23:29;;;;;;;12.63;9.02;;;3.40;99.90;;;;;;4846631;29;20296;-58
2022/04/14 11:26:09;;;;;;;13.48;9.55;;;3.50;99.90;;;;;;4839748;29;20207;-59
2022/04/14 11:28:43;;;;;;;14.10;9.85;;;3.50;99.90;;;;;;4842364;29;20198;-57
2022/04/14 11:31:28;;;;;;;11.18;9.13;;;3.50;99.90;;;;;;4844311;29;20217;-57
2022/04/14 11:33:59;;;;;;;12.07;9.07;;;3.70;99.90;;;;;;4835606;29;20203;-58
2022/04/14 11:36:46;;;;;;;11.93;8.85;;;3.60;99.90;;;;;;4833887;29;20210;-58
2022/04/14 11:39:25;;;;;;;10.65;8.38;;;3.70;99.90;;;;;;4835792;29;20220;-57
2022/04/14 11:41:58;;;;;;;11.77;9.00;;;3.70;99.90;;;;;;4845207;29;20209;-58
2022/04/14 11:44:32;;;;;;;11.90;8.98;;;3.70;99.90;;;;;;4832784;29;20549;-57
2022/04/14 11:47:05;;;;;;;12.18;9.40;;;3.70;99.90;;;;;;4839846;29;20210;-57
2022/04/14 11:49:37;;;;;;;10.43;8.23;;;3.70;99.90;;;;;;4847087;29;20198;-60
2022/04/14 11:52:09;;;;;;;11.95;8.50;;;3.80;99.90;;;;;;4841589;29;20248;-59
2022/04/14 11:54:44;;;;;;;10.27;8.77;;;3.70;99.90;;;;;;4836271;29;20210;-55
2022/04/14 11:57:20;;;;;;;12.23;9.27;;;3.80;99.90;;;;;;4845089;29;20713;-57
2022/04/14 11:59:51;;;;;;;12.10;9.18;;;3.80;99.90;;;;;;4833400;29;20210;-58
2022/04/14 12:02:24;;;;;;;11.13;8.40;;;3.90;99.90;;;;;;4837512;29;20308;-59
2022/04/14 12:04:56;;;;;;;12.38;8.60;;;3.80;99.90;;;;;;4837477;29;20202;-58
2022/04/14 12:07:33;;;;;;;10.45;7.43;;;3.80;99.90;;;;;;4833760;29;20627;-58
2022/04/14 12:10:07;;;;;;;9.10;7.60;;;3.90;99.90;;;;;;4834929;29;20206;-57
2022/04/14 12:12:39;;;;;;;9.98;8.20;;;3.90;99.90;;;;;;4834231;29;20241;-58
2022/04/14 12:15:11;;;;;;;13.80;8.50;;;3.90;99.90;;;;;;4848896;29;20214;-57
2022/04/14 12:17:42;;;;;;;10.93;8.70;;;3.90;99.90;;;;;;4847732;29;20243;-56
2022/04/14 12:20:12;;;;;;;11.40;8.90;;;3.90;99.90;;;;;;4836673;29;20307;-57
2022/04/14 12:22:43;;;;;;;11.55;8.30;;;3.90;99.90;;;;;;4848499;29;20212;-58
2022/04/14 12:25:16;;;;;;;11.23;7.40;;;3.90;99.90;;;;;;4853128;29;20228;-59
2022/04/14 12:27:48;;;;;;;13.50;8.82;;;4.00;99.90;;;;;;4837463;29;20220;-58
2022/04/14 12:30:22;;;;;;;11.85;8.60;;;4.00;99.90;;;;;;4851756;29;20693;-59
2022/04/14 12:33:02;;;;;;;10.68;8.52;;;4.10;99.90;;;;;;4840347;29;20221;-59
2022/04/14 12:35:36;;;;;;;12.45;9.45;;;4.00;99.90;;;;;;4839378;29;20202;-59
2022/04/14 12:38:16;;;;;;;12.38;10.38;;;4.00;99.90;;;;;;4845230;29;20205;-58
2022/04/14 12:41:00;;;;;;;11.30;8.95;;;4.00;99.90;;;;;;4838485;29;20210;-59
2022/04/14 12:43:37;;;;;;;11.90;9.02;;;4.00;99.90;;;;;;4850857;29;20213;-56
2022/04/14 12:46:23;;;;;;;14.57;10.38;;;3.90;99.90;;;;;;4840867;29;20221;-59
2022/04/14 12:49:06;;;;;;;12.07;9.18;;;3.90;99.90;;;;;;4849305;29;20234;-59
2022/04/14 12:51:58;;;;;;;12.82;9.60;;;3.80;99.90;;;;;;4839455;29;20248;-59
2022/04/14 12:54:28;;;;;;;13.80;10.20;;;3.80;99.90;;;;;;4850840;29;20229;-59
2022/04/14 12:57:02;;;;;;;14.00;10.50;;;3.80;99.90;;;;;;4847953;29;20210;-60
2022/04/14 12:59:35;;;;;;;17.60;13.32;;;3.80;99.90;;;;;;4841215;29;20207;-58
2022/04/14 13:02:09;;;;;;;15.23;11.73;;;3.70;99.90;;;;;;4850530;29;20209;-59
2022/04/14 13:04:41;;;;;;;16.98;11.73;;;3.80;99.90;;;;;;4844311;29;20209;-58
2022/04/14 13:07:13;;;;;;;17.92;11.73;;;3.70;99.90;;;;;;4844450;29;20305;-58
2022/04/14 13:10:00;;;;;;;17.88;11.60;;;3.80;99.90;;;;;;4849727;29;20209;-59
2022/04/14 13:12:41;;;;;;;18.23;12.50;;;3.80;99.90;;;;;;4840280;29;20292;-59
2022/04/14 13:15:15;;;;;;;19.40;11.55;;;3.90;99.90;;;;;;4853870;29;20538;-58
2022/04/14 13:17:46;;;;;;;18.02;11.85;;;3.90;99.90;;;;;;4851901;29;20678;-58
2022/04/14 13:20:18;;;;;;;18.67;12.02;;;3.80;99.90;;;;;;4852122;29;20587;-59
2022/04/14 13:22:51;;;;;;;16.27;11.32;;;3.80;99.90;;;;;;4838492;29;20231;-58
2022/04/14 13:25:22;;;;;;;16.15;10.45;;;3.80;99.90;;;;;;4853908;29;20217;-58